»·PEaware :: N72476 KBOI-KYKM

N72476 :: KBOI-KYKM

FLIGHT INFORMATION

Flight Status: Arrived
Operator: Privately registered:
United States
More flights under this callsign
Pilot: Ted G. (11658)
Aircraft: CESSNA 550 CITATION 2/S2/BRAVO
(C550)
More flights by this aircraft type
Origin: KBOI Boise Air Terminal/Gowen
United States
Destination: KYKM Yakima Air Term/Mcallister
United States
More flights between these airports :: More routes between these airports
Route: +BOI3 OLAAH PREIS BKE V4 YKM
File this flight plan on PilotEdge
Remarks:
Altitude:
(Current/Filed)
24,000ft
Speed:
(Current/Filed)
330kts
Departed: 17-Apr-20 01:09 PM
Arrived: 17-Apr-20 02:14 PM
Distance/Time
Traveled:
257nm/1:04
Distance/Time
To Go:
Arrived

Flight Plot

Page will automatically refresh every two minutes.


Map Options




Map Legend


Flown Route
Filed Route
Departure Airport
Arrival Airport
Navaid (VOR, NDB)
Fix

Horizontal Profiles

Position Reports

Time Latitude Longitude Heading Altitude Ground
Speed
17-Apr-20 12:38 43.569944 -116.229976 180 2876ft 0kts
17-Apr-20 12:39 43.569944 -116.229976 180 2876ft 0kts
17-Apr-20 12:40 43.569944 -116.229976 180 2876ft 0kts
17-Apr-20 12:41 43.569944 -116.229976 180 2876ft 0kts
17-Apr-20 12:42 43.569944 -116.229976 180 2876ft 0kts
17-Apr-20 12:43 43.569944 -116.229976 180 2876ft 0kts
17-Apr-20 12:44 43.569944 -116.229976 180 2876ft 0kts
17-Apr-20 12:45 43.569944 -116.229976 180 2876ft 0kts
17-Apr-20 12:46 43.569944 -116.229976 180 2876ft 0kts
17-Apr-20 12:47 43.569944 -116.229976 180 2876ft 0kts
17-Apr-20 12:48 43.569944 -116.229976 180 2876ft 0kts
17-Apr-20 12:49 43.569944 -116.229976 180 2876ft 0kts
17-Apr-20 12:50 43.569944 -116.229976 180 2876ft 0kts
17-Apr-20 12:51 43.569944 -116.229976 180 2876ft 0kts
17-Apr-20 12:52 43.569944 -116.229976 180 2876ft 0kts
17-Apr-20 12:53 43.569944 -116.229976 180 2876ft 0kts
17-Apr-20 12:54 43.569944 -116.229976 180 2876ft 0kts
17-Apr-20 12:55 43.569944 -116.229976 180 2876ft 0kts
17-Apr-20 12:56 43.569944 -116.229976 180 2876ft 0kts
17-Apr-20 12:57 43.569944 -116.229976 180 2876ft 0kts
17-Apr-20 12:58 43.569944 -116.229976 180 2876ft 0kts
17-Apr-20 12:59 43.569944 -116.229976 180 2876ft 0kts
17-Apr-20 13:00 43.569944 -116.229976 180 2876ft 0kts
17-Apr-20 13:01 43.569944 -116.229976 180 2876ft 0kts
17-Apr-20 13:02 43.569944 -116.229976 180 2876ft 0kts
17-Apr-20 13:03 43.569238 -116.230281 247 2876ft 7kts
17-Apr-20 13:04 43.570585 -116.234479 295 2876ft 15kts
17-Apr-20 13:05 43.570939 -116.236165 235 2876ft 0kts
17-Apr-20 13:06 43.570939 -116.236165 235 2876ft 0kts
17-Apr-20 13:07 43.570939 -116.236165 235 2876ft 0kts
17-Apr-20 13:08 43.568647 -116.232366 115 2876ft 81kts
17-Apr-20 13:09 43.554456 -116.191810 112 5084ft 121kts
17-Apr-20 13:10 43.542559 -116.147150 112 7335ft 139kts
17-Apr-20 13:11 43.526008 -116.091491 114 9380ft 176kts
17-Apr-20 13:12 43.519817 -116.023586 54 11408ft 204kts
17-Apr-20 13:13 43.572847 -116.022015 326 13420ft 211kts
17-Apr-20 13:14 43.619992 -116.070522 312 15426ft 212kts
17-Apr-20 13:15 43.666851 -116.131650 315 16104ft 264kts
17-Apr-20 13:16 43.725366 -116.206938 315 16072ft 301kts
17-Apr-20 13:17 43.783283 -116.281703 315 17739ft 268kts
17-Apr-20 13:18 43.835286 -116.349084 314 19633ft 245kts
17-Apr-20 13:19 43.884719 -116.413343 315 21507ft 248kts
17-Apr-20 13:20 43.935332 -116.479240 315 23423ft 251kts
17-Apr-20 13:21 43.988657 -116.548827 316 24280ft 294kts
17-Apr-20 13:22 44.054163 -116.634544 316 24283ft 349kts
17-Apr-20 13:23 44.131262 -116.727431 324 24287ft 380kts
17-Apr-20 13:24 44.211203 -116.827729 311 24290ft 393kts
17-Apr-20 13:25 44.285516 -116.941700 311 24290ft 400kts
17-Apr-20 13:26 44.360774 -117.057639 312 24290ft 403kts
17-Apr-20 13:27 44.436284 -117.174331 312 24284ft 404kts
17-Apr-20 13:28 44.511741 -117.291440 312 24250ft 405kts
17-Apr-20 13:29 44.587177 -117.409074 312 24228ft 405kts
17-Apr-20 13:30 44.662471 -117.526970 312 24229ft 405kts
17-Apr-20 13:31 44.737597 -117.645099 312 24229ft 405kts
17-Apr-20 13:32 44.812455 -117.763304 312 24227ft 405kts
17-Apr-20 13:33 44.892422 -117.874837 318 24227ft 404kts
17-Apr-20 13:34 44.975273 -117.982196 318 24227ft 404kts
17-Apr-20 13:35 45.058323 -118.090188 317 24214ft 403kts
17-Apr-20 13:36 45.135291 -118.190994 318 24199ft 352kts
17-Apr-20 13:37 45.205118 -118.282456 318 24201ft 342kts
17-Apr-20 13:38 45.276382 -118.376229 318 24191ft 355kts
17-Apr-20 13:39 45.349197 -118.472422 318 24168ft 360kts
17-Apr-20 13:40 45.423168 -118.570496 318 24146ft 363kts
17-Apr-20 13:41 45.497249 -118.669088 317 23931ft 367kts
17-Apr-20 13:42 45.569565 -118.765679 317 23326ft 349kts
17-Apr-20 13:43 45.639543 -118.859474 317 22735ft 341kts
17-Apr-20 13:44 45.707927 -118.955882 312 22232ft 347kts
17-Apr-20 13:45 45.771187 -119.061296 310 21726ft 349kts
17-Apr-20 13:46 45.834034 -119.167653 310 21207ft 350kts
17-Apr-20 13:47 45.894737 -119.270727 310 20217ft 321kts
17-Apr-20 13:48 45.949922 -119.364778 310 19195ft 296kts
17-Apr-20 13:49 46.001762 -119.453419 310 18182ft 285kts
17-Apr-20 13:50 46.052780 -119.540931 310 16837ft 290kts
17-Apr-20 13:51 46.105824 -119.632218 309 14965ft 302kts
17-Apr-20 13:52 46.159017 -119.724068 309 12522ft 294kts
17-Apr-20 13:53 46.208847 -119.810347 308 11117ft 257kts
17-Apr-20 13:54 46.249920 -119.881709 308 11100ft 209kts
17-Apr-20 13:55 46.288862 -119.949715 308 11107ft 233kts
17-Apr-20 13:56 46.331847 -120.024704 308 11058ft 250kts
17-Apr-20 13:57 46.380209 -120.109372 308 9868ft 287kts
17-Apr-20 13:58 46.428173 -120.193545 308 8488ft 253kts
17-Apr-20 13:59 46.469429 -120.266240 308 6876ft 221kts
17-Apr-20 14:00 46.507225 -120.333025 308 5274ft 208kts
17-Apr-20 14:01 46.538369 -120.388084 308 5136ft 160kts
17-Apr-20 14:02 46.568076 -120.439649 321 5132ft 167kts
17-Apr-20 14:03 46.608756 -120.476854 330 4808ft 180kts
17-Apr-20 14:04 46.650497 -120.511774 330 4631ft 156kts
17-Apr-20 14:05 46.682918 -120.553005 298 4054ft 166kts
17-Apr-20 14:06 46.689295 -120.616756 255 3732ft 148kts
17-Apr-20 14:07 46.671261 -120.662413 219 3665ft 120kts
17-Apr-20 14:08 46.642019 -120.684716 189 3231ft 113kts
17-Apr-20 14:09 46.612669 -120.678649 148 2735ft 97kts
17-Apr-20 14:10 46.595338 -120.649766 112 2596ft 105kts
17-Apr-20 14:11 46.586197 -120.614049 110 2033ft 93kts
17-Apr-20 14:12 46.576705 -120.576148 109 1414ft 97kts
17-Apr-20 14:13 46.570626 -120.549397 11 1104ft 9kts
17-Apr-20 14:15 46.571715 -120.551472 289 1104ft 9kts
17-Apr-20 14:16 46.573147 -120.554001 293 1104ft 0kts
17-Apr-20 14:17 46.573147 -120.554001 293 1104ft 0kts
17-Apr-20 14:18 46.573147 -120.554001 293 1104ft 0kts
17-Apr-20 14:19 46.573147 -120.554001 293 1104ft 0kts
17-Apr-20 14:20 46.573147 -120.554001 293 1104ft 0kts
17-Apr-20 14:21 46.573147 -120.554001 293 1104ft 0kts
17-Apr-20 14:22 46.573147 -120.554001 293 1104ft 0kts
17-Apr-20 14:23 46.573147 -120.554001 293 1104ft 0kts

Navigation Log

Ident Type
Flight plan parsing failed, navigation log unavailable